createdAt,value
2023-04-16T00:01:27.426Z,40.40
2023-04-16T00:03:57.994Z,38.75
2023-04-16T00:06:37.944Z,33.88
2023-04-16T00:09:07.274Z,37.28
2023-04-16T00:11:33.964Z,39.97
2023-04-16T00:14:00.546Z,39.42
2023-04-16T00:16:27.775Z,42.17
2023-04-16T00:18:57.331Z,38.78
2023-04-16T00:21:23.801Z,41.35
2023-04-16T00:23:50.323Z,41.60
2023-04-16T00:26:16.881Z,39.88
2023-04-16T00:28:43.335Z,40.03
2023-04-16T00:31:10.447Z,35.50
2023-04-16T00:33:43.303Z,44.38
2023-04-16T00:36:15.919Z,29.63
2023-04-16T00:38:42.423Z,40.30
2023-04-16T00:41:08.910Z,41.13
2023-04-16T00:43:35.357Z,39.97
2023-04-16T00:46:05.683Z,41.10
2023-04-16T00:48:32.898Z,45.28
2023-04-16T00:51:08.125Z,45.17
2023-04-16T00:53:36.677Z,44.75
2023-04-16T00:56:04.915Z,43.40
2023-04-16T00:58:32.482Z,39.90
2023-04-16T01:01:02.077Z,40.28
2023-04-16T01:03:46.996Z,38.42
2023-04-16T01:06:14.531Z,41.83
2023-04-16T01:08:41.103Z,37.10
2023-04-16T01:11:07.715Z,36.10
2023-04-16T01:13:39.053Z,41.00
2023-04-16T01:16:11.292Z,33.38
2023-04-16T01:18:38.852Z,40.60
2023-04-16T01:21:06.072Z,41.47
2023-04-16T01:23:32.632Z,42.40
2023-04-16T01:26:02.351Z,36.55
2023-04-16T01:28:32.377Z,39.40
2023-04-16T01:30:58.955Z,41.50
2023-04-16T01:33:25.464Z,41.13
2023-04-16T01:35:52.233Z,40.55
2023-04-16T01:38:18.780Z,42.95
2023-04-16T01:40:45.494Z,43.70
2023-04-16T01:43:11.979Z,42.47
2023-04-16T01:45:43.530Z,36.72
2023-04-16T01:48:10.059Z,40.40
2023-04-16T01:50:37.827Z,26.25
2023-04-16T01:53:05.236Z,40.00
2023-04-16T01:55:33.890Z,37.25
2023-04-16T01:58:00.456Z,48.67
2023-04-16T02:00:26.968Z,31.92
2023-04-16T02:02:53.858Z,39.38
2023-04-16T02:05:20.526Z,38.83
2023-04-16T02:07:47.085Z,29.80
2023-04-16T02:10:13.608Z,42.88
2023-04-16T02:12:40.147Z,20.70
2023-04-16T02:15:07.205Z,40.28
2023-04-16T02:17:33.714Z,39.75
2023-04-16T02:20:05.630Z,50.63
2023-04-16T02:24:58.636Z,50.55
2023-04-16T02:27:25.164Z,34.80
2023-04-16T02:29:51.609Z,48.25
2023-04-16T02:32:18.405Z,47.88
2023-04-16T02:34:44.902Z,51.22
2023-04-16T02:37:11.564Z,53.95
2023-04-16T02:39:38.060Z,50.38
2023-04-16T02:42:04.614Z,49.47
2023-04-16T02:44:31.042Z,43.40
2023-04-16T02:46:57.523Z,57.33
2023-04-16T02:49:23.961Z,55.40
2023-04-16T02:51:50.476Z,60.30
2023-04-16T02:54:16.920Z,49.25
2023-04-16T02:56:43.380Z,61.00
2023-04-16T02:59:10.103Z,54.33
2023-04-16T03:01:36.914Z,58.90
2023-04-16T03:04:03.667Z,59.83
2023-04-16T03:06:30.179Z,63.15
2023-04-16T03:08:56.672Z,65.78
2023-04-16T03:11:23.620Z,57.25
2023-04-16T03:13:50.155Z,59.80
2023-04-16T03:16:16.681Z,62.15
2023-04-16T03:18:43.359Z,61.03
2023-04-16T03:21:09.832Z,59.75
2023-04-16T03:23:36.543Z,58.55
2023-04-16T03:26:03.117Z,58.72
2023-04-16T03:28:29.729Z,56.90
2023-04-16T03:30:56.288Z,53.22
2023-04-16T03:33:22.935Z,57.67
2023-04-16T03:35:56.013Z,55.50
2023-04-16T03:38:23.476Z,58.40
2023-04-16T03:40:49.910Z,60.67
2023-04-16T03:43:16.508Z,62.42
2023-04-16T03:45:46.670Z,69.45
2023-04-16T03:48:13.470Z,73.57
2023-04-16T03:50:39.993Z,71.22
2023-04-16T03:53:06.505Z,77.55
2023-04-16T03:55:32.959Z,80.85
2023-04-16T03:58:03.012Z,76.03
2023-04-16T04:00:30.497Z,75.53
2023-04-16T04:02:57.258Z,71.10
2023-04-16T04:05:23.954Z,70.57
2023-04-16T04:07:50.630Z,69.03
2023-04-16T04:10:17.131Z,72.57
2023-04-16T04:12:44.056Z,73.47
2023-04-16T04:15:11.656Z,82.70
2023-04-16T04:17:38.273Z,86.68
2023-04-16T04:20:05.285Z,91.88
2023-04-16T04:22:31.791Z,93.82
2023-04-16T04:24:58.331Z,93.35
2023-04-16T04:27:24.782Z,91.55
2023-04-16T04:29:51.309Z,87.65
2023-04-16T04:32:17.768Z,90.63
2023-04-16T04:34:44.248Z,91.78
2023-04-16T04:37:10.677Z,88.05
2023-04-16T04:39:37.166Z,85.45
2023-04-16T04:42:03.851Z,84.03
2023-04-16T04:44:30.346Z,86.50
2023-04-16T04:46:56.806Z,81.50
2023-04-16T04:49:23.364Z,75.88
2023-04-16T04:51:49.902Z,76.00
2023-04-16T04:54:16.655Z,65.57
2023-04-16T04:56:45.743Z,61.08
2023-04-16T04:59:12.692Z,62.35
2023-04-16T05:01:39.305Z,59.42
2023-04-16T05:04:06.345Z,63.53
2023-04-16T05:06:32.898Z,62.95
2023-04-16T05:08:59.385Z,64.93
2023-04-16T05:11:25.836Z,66.38
2023-04-16T05:13:52.367Z,60.28
2023-04-16T05:16:18.888Z,59.85
2023-04-16T05:18:45.473Z,59.92
2023-04-16T05:21:12.088Z,55.65
2023-04-16T05:23:38.578Z,53.63
2023-04-16T05:26:05.293Z,52.40
2023-04-16T05:28:32.017Z,52.67
2023-04-16T05:30:58.519Z,50.55
2023-04-16T05:33:25.175Z,48.92
2023-04-16T05:35:51.642Z,47.20
2023-04-16T05:38:18.091Z,43.13
2023-04-16T05:40:44.605Z,41.05
2023-04-16T05:43:11.035Z,41.95
2023-04-16T05:45:41.249Z,38.30
2023-04-16T05:48:11.802Z,35.38
2023-04-16T05:50:38.529Z,33.72
2023-04-16T05:53:08.340Z,33.88
2023-04-16T05:55:38.917Z,34.25
2023-04-16T05:58:05.686Z,34.55
2023-04-16T06:00:35.334Z,34.30
2023-04-16T06:03:03.096Z,32.13
2023-04-16T06:05:29.952Z,30.70
2023-04-16T06:07:56.705Z,30.05
2023-04-16T06:10:23.279Z,26.80
2023-04-16T06:12:49.878Z,28.70
2023-04-16T06:15:16.422Z,27.55
2023-04-16T06:17:42.956Z,27.33
2023-04-16T06:20:10.061Z,26.45
2023-04-16T06:22:36.603Z,24.25
2023-04-16T06:25:03.165Z,24.08
2023-04-16T06:27:29.693Z,27.17
2023-04-16T06:29:57.030Z,28.05
2023-04-16T06:32:23.745Z,30.27
2023-04-16T06:34:50.460Z,28.27
2023-04-16T06:37:16.946Z,29.30
2023-04-16T06:39:43.520Z,29.23
2023-04-16T06:42:10.465Z,28.95
2023-04-16T06:44:37.178Z,27.58
2023-04-16T06:47:03.906Z,25.48
2023-04-16T06:49:30.510Z,25.65
2023-04-16T06:51:57.849Z,26.85
2023-04-16T06:54:24.328Z,26.02
2023-04-16T06:56:50.886Z,27.42
2023-04-16T06:59:17.652Z,28.17
2023-04-16T07:01:44.287Z,28.67
2023-04-16T07:04:12.194Z,29.02
2023-04-16T07:06:38.725Z,29.90
2023-04-16T07:09:07.782Z,29.33
2023-04-16T07:11:34.577Z,27.67
2023-04-16T07:14:01.160Z,25.52
2023-04-16T07:16:27.703Z,25.92
2023-04-16T07:18:54.186Z,23.08
2023-04-16T07:21:21.110Z,23.85
2023-04-16T07:23:47.587Z,24.52
2023-04-16T07:26:14.055Z,23.83
2023-04-16T07:28:40.521Z,25.10
2023-04-16T07:31:07.185Z,26.23
2023-04-16T07:33:33.741Z,27.50
2023-04-16T07:36:00.204Z,29.48
2023-04-16T07:38:26.679Z,29.80
2023-04-16T07:40:53.235Z,31.48
2023-04-16T07:43:19.706Z,32.42
2023-04-16T07:45:46.263Z,34.08
2023-04-16T07:48:12.812Z,33.22
2023-04-16T07:50:39.343Z,33.55
2023-04-16T07:53:07.622Z,33.28
2023-04-16T07:55:34.104Z,33.50
2023-04-16T07:58:00.682Z,34.75
2023-04-16T08:00:27.165Z,34.67
2023-04-16T08:02:56.700Z,34.35
2023-04-16T08:05:23.373Z,32.25
2023-04-16T08:07:49.989Z,28.58
2023-04-16T08:10:16.540Z,32.28
2023-04-16T08:12:43.080Z,33.40
2023-04-16T08:15:09.871Z,31.60
2023-04-16T08:17:37.619Z,34.65
2023-04-16T08:20:04.907Z,33.47
2023-04-16T08:22:31.473Z,35.35
2023-04-16T08:24:57.894Z,36.05
2023-04-16T08:27:24.371Z,34.35
2023-04-16T08:29:50.970Z,33.58
2023-04-16T08:32:17.516Z,33.25
2023-04-16T08:34:44.217Z,34.17
2023-04-16T08:37:10.740Z,35.13
2023-04-16T08:39:40.063Z,33.70
2023-04-16T08:42:18.949Z,32.20
2023-04-16T08:44:49.883Z,32.33
2023-04-16T08:47:16.781Z,32.15
2023-04-16T08:49:46.389Z,31.05
2023-04-16T08:52:20.220Z,31.33
2023-04-16T08:54:57.034Z,30.92
2023-04-16T08:57:27.009Z,30.05
2023-04-16T08:59:55.930Z,29.52
2023-04-16T09:02:23.074Z,29.25
2023-04-16T09:04:51.280Z,30.52
2023-04-16T09:07:20.705Z,31.33
2023-04-16T09:09:49.912Z,30.52
2023-04-16T09:12:17.413Z,30.15
2023-04-16T09:14:49.710Z,29.20
2023-04-16T09:17:16.973Z,29.35
2023-04-16T09:19:43.879Z,28.55
2023-04-16T09:22:10.343Z,29.92
2023-04-16T09:24:38.497Z,31.05
2023-04-16T09:27:08.902Z,32.25
2023-04-16T09:29:37.126Z,31.33
2023-04-16T09:32:05.675Z,32.10
2023-04-16T09:34:33.707Z,32.78
2023-04-16T09:37:18.834Z,31.98
2023-04-16T09:39:54.610Z,29.55
2023-04-16T09:42:25.301Z,27.73
2023-04-16T09:44:52.905Z,27.65
2023-04-16T09:47:19.470Z,27.23
2023-04-16T09:49:47.082Z,28.92
2023-04-16T09:52:22.270Z,29.10
2023-04-16T09:54:53.211Z,34.33
2023-04-16T09:57:24.854Z,34.90
2023-04-16T09:59:58.823Z,35.00
2023-04-16T10:02:29.254Z,34.13
2023-04-16T10:04:57.431Z,32.83
2023-04-16T10:07:29.228Z,32.10
2023-04-16T10:09:56.024Z,31.90
2023-04-16T10:12:23.347Z,29.83
2023-04-16T10:14:50.473Z,36.10
2023-04-16T10:17:17.302Z,32.88
2023-04-16T10:19:44.316Z,31.77
2023-04-16T10:22:11.569Z,30.67
2023-04-16T10:24:38.731Z,36.40
2023-04-16T10:27:05.297Z,67.72
2023-04-16T10:29:32.857Z,33.70
2023-04-16T10:32:01.110Z,32.45
2023-04-16T10:34:28.989Z,33.20
2023-04-16T10:36:56.115Z,29.92
2023-04-16T10:39:24.198Z,31.85
2023-04-16T10:42:06.194Z,32.60
2023-04-16T10:44:33.234Z,57.72
2023-04-16T10:47:00.155Z,32.65
2023-04-16T10:49:27.127Z,36.45
2023-04-16T10:52:02.576Z,33.40
2023-04-16T10:54:30.908Z,34.20
2023-04-16T10:57:02.264Z,33.45
2023-04-16T10:59:32.125Z,35.88
2023-04-16T11:02:04.107Z,32.78
2023-04-16T11:04:40.340Z,32.50
2023-04-16T11:07:08.162Z,29.35
2023-04-16T11:09:51.573Z,29.05
2023-04-16T11:12:20.556Z,28.55
2023-04-16T11:14:52.961Z,29.85
2023-04-16T11:17:20.794Z,30.15
2023-04-16T11:19:47.955Z,32.42
2023-04-16T11:22:17.226Z,34.40
2023-04-16T11:24:47.642Z,34.42
2023-04-16T11:27:15.173Z,36.42
2023-04-16T11:29:42.365Z,36.38
2023-04-16T11:32:09.035Z,37.55
2023-04-16T11:34:43.761Z,36.47
2023-04-16T11:37:10.438Z,33.33
2023-04-16T11:39:51.316Z,35.35
2023-04-16T11:42:24.265Z,35.80
2023-04-16T11:45:02.912Z,36.88
2023-04-16T11:47:31.217Z,37.15
2023-04-16T11:49:58.914Z,33.88
2023-04-16T11:52:27.434Z,36.10
2023-04-16T11:54:54.474Z,35.97
2023-04-16T11:57:31.954Z,37.90
2023-04-16T12:00:02.028Z,38.38
2023-04-16T12:02:36.517Z,38.50
2023-04-16T12:05:04.523Z,39.40
2023-04-16T12:07:31.158Z,36.67
2023-04-16T12:10:08.025Z,39.78
2023-04-16T12:12:35.362Z,38.22
2023-04-16T12:15:05.840Z,39.03
2023-04-16T12:17:34.161Z,37.20
2023-04-16T12:20:06.013Z,35.28
2023-04-16T12:22:36.799Z,42.05
2023-04-16T12:25:11.287Z,40.00
2023-04-16T12:27:54.711Z,34.88
2023-04-16T12:30:29.604Z,34.58
2023-04-16T12:33:16.964Z,34.47
2023-04-16T12:35:44.091Z,35.22
2023-04-16T12:38:13.559Z,44.70
2023-04-16T12:40:40.040Z,34.35
2023-04-16T12:43:06.576Z,34.78
2023-04-16T12:45:33.144Z,37.08
2023-04-16T12:47:59.666Z,35.63
2023-04-16T12:50:26.312Z,32.80
2023-04-16T12:52:52.831Z,34.63
2023-04-16T12:55:19.561Z,33.45
2023-04-16T12:57:48.726Z,35.80
2023-04-16T13:00:16.332Z,34.42
2023-04-16T13:02:43.043Z,35.10
2023-04-16T13:05:10.057Z,41.70
2023-04-16T13:07:36.551Z,55.85
2023-04-16T13:10:03.262Z,63.00
2023-04-16T13:12:29.788Z,63.90
2023-04-16T13:14:56.457Z,62.22
2023-04-16T13:17:22.943Z,61.70
2023-04-16T13:19:49.400Z,65.03
2023-04-16T13:22:16.013Z,62.97
2023-04-16T13:24:42.534Z,50.35
2023-04-16T13:27:09.145Z,49.95
2023-04-16T13:29:38.199Z,49.55
2023-04-16T13:32:05.093Z,47.53
2023-04-16T13:34:31.770Z,48.28
2023-04-16T13:36:58.273Z,50.38
2023-04-16T13:39:25.219Z,51.30
2023-04-16T13:41:51.722Z,49.63
2023-04-16T13:44:18.243Z,50.83
2023-04-16T13:46:47.716Z,50.03
2023-04-16T13:49:14.856Z,44.47
2023-04-16T13:51:44.613Z,43.03
2023-04-16T13:54:11.090Z,41.65
2023-04-16T13:56:37.706Z,40.47
2023-04-16T13:59:04.269Z,40.17
2023-04-16T14:01:30.943Z,40.70
2023-04-16T14:04:00.328Z,39.13
2023-04-16T14:06:26.991Z,42.03
2023-04-16T14:08:53.500Z,43.47
2023-04-16T14:11:20.526Z,42.88
2023-04-16T14:13:50.167Z,43.78
2023-04-16T14:16:16.693Z,45.20
2023-04-16T14:18:43.213Z,45.67
2023-04-16T14:21:09.725Z,41.95
2023-04-16T14:23:36.300Z,45.20
2023-04-16T14:26:03.695Z,45.88
2023-04-16T14:28:30.475Z,45.80
2023-04-16T14:30:56.975Z,44.85
2023-04-16T14:33:23.762Z,45.35
2023-04-16T14:35:51.312Z,44.65
2023-04-16T14:38:17.924Z,45.20
2023-04-16T14:40:44.406Z,45.38
2023-04-16T14:43:10.916Z,48.15
2023-04-16T14:45:38.269Z,45.97
2023-04-16T14:48:06.267Z,48.95
2023-04-16T14:50:37.839Z,54.60
2023-04-16T14:53:07.525Z,50.17
2023-04-16T14:55:34.026Z,48.33
2023-04-16T14:58:00.526Z,48.25
2023-04-16T15:00:27.457Z,48.72
2023-04-16T15:02:55.103Z,48.22
2023-04-16T15:05:22.227Z,50.20
2023-04-16T15:07:48.739Z,47.70
2023-04-16T15:10:15.547Z,47.15
2023-04-16T15:12:42.086Z,45.95
2023-04-16T15:15:09.517Z,46.08
2023-04-16T15:17:36.383Z,49.20
2023-04-16T15:20:05.904Z,50.28
2023-04-16T15:22:35.577Z,51.28
2023-04-16T15:25:02.351Z,50.28
2023-04-16T15:27:28.836Z,51.83
2023-04-16T15:29:55.654Z,51.28
2023-04-16T15:32:22.253Z,49.83
2023-04-16T15:34:48.803Z,46.67
2023-04-16T15:37:16.029Z,49.70
2023-04-16T15:39:44.677Z,47.25
2023-04-16T15:42:11.281Z,49.17
2023-04-16T15:44:37.820Z,49.75
2023-04-16T15:47:06.252Z,50.42
2023-04-16T15:49:32.794Z,46.33
2023-04-16T15:51:59.301Z,44.70
2023-04-16T15:54:25.996Z,45.60
2023-04-16T15:56:56.038Z,45.35
2023-04-16T15:59:22.672Z,45.53
2023-04-16T16:01:49.239Z,47.00
2023-04-16T16:04:16.045Z,45.58
2023-04-16T16:06:42.748Z,46.55
2023-04-16T16:09:10.362Z,45.78
2023-04-16T16:11:38.391Z,45.42
2023-04-16T16:14:04.864Z,44.80
2023-04-16T16:16:32.644Z,45.30
2023-04-16T16:18:59.234Z,44.08
2023-04-16T16:21:29.544Z,44.25
2023-04-16T16:23:56.154Z,46.95
2023-04-16T16:26:23.058Z,43.95
2023-04-16T16:28:49.635Z,42.05
2023-04-16T16:31:16.250Z,45.50
2023-04-16T16:33:42.759Z,45.80
2023-04-16T16:36:12.470Z,43.03
2023-04-16T16:38:42.442Z,42.40
2023-04-16T16:41:08.965Z,43.50
2023-04-16T16:43:39.033Z,42.28
2023-04-16T16:46:07.330Z,40.92
2023-04-16T16:48:33.836Z,43.92
2023-04-16T16:51:00.591Z,43.58
2023-04-16T16:53:27.330Z,44.55
2023-04-16T16:55:53.818Z,42.20
2023-04-16T16:58:20.797Z,42.60
2023-04-16T17:00:47.323Z,42.90
2023-04-16T17:03:14.072Z,42.75
2023-04-16T17:05:40.702Z,42.92
2023-04-16T17:08:07.266Z,43.80
2023-04-16T17:10:35.189Z,42.40
2023-04-16T17:13:01.693Z,45.10
2023-04-16T17:15:28.281Z,45.67
2023-04-16T17:17:54.950Z,46.00
2023-04-16T17:20:21.556Z,44.15
2023-04-16T17:22:48.139Z,45.20
2023-04-16T17:25:17.450Z,46.40
2023-04-16T17:27:44.059Z,44.20
2023-04-16T17:30:10.899Z,46.50
2023-04-16T17:32:37.443Z,46.15
2023-04-16T17:35:04.572Z,44.75
2023-04-16T17:37:31.255Z,46.08
2023-04-16T17:40:00.485Z,46.00
2023-04-16T17:42:26.995Z,45.75
2023-04-16T17:44:56.853Z,46.35
2023-04-16T17:47:23.434Z,45.83
2023-04-16T17:49:53.201Z,48.05
2023-04-16T17:52:21.289Z,48.97
2023-04-16T17:54:48.615Z,51.13
2023-04-16T17:57:15.510Z,51.97
2023-04-16T17:59:42.707Z,49.53
2023-04-16T18:02:09.376Z,49.33
2023-04-16T18:04:36.020Z,51.70
2023-04-16T18:07:02.573Z,48.45
2023-04-16T18:09:29.058Z,48.50
2023-04-16T18:11:58.291Z,48.20
2023-04-16T18:14:25.187Z,45.92
2023-04-16T18:16:51.711Z,46.75
2023-04-16T18:19:18.310Z,47.72
2023-04-16T18:21:45.059Z,47.65
2023-04-16T18:24:11.874Z,48.95
2023-04-16T18:26:40.742Z,48.50
2023-04-16T18:29:07.750Z,49.38
2023-04-16T18:31:34.235Z,50.85
2023-04-16T18:34:03.396Z,52.33
2023-04-16T18:36:29.913Z,50.65
2023-04-16T18:39:02.202Z,47.72
2023-04-16T18:41:29.860Z,55.03
2023-04-16T18:43:56.574Z,51.25
2023-04-16T18:46:23.130Z,35.75
2023-04-16T18:48:49.779Z,26.17
2023-04-16T18:51:16.727Z,26.42
2023-04-16T18:53:46.075Z,21.95
2023-04-16T18:56:12.843Z,25.33
2023-04-16T18:58:39.442Z,25.92
2023-04-16T19:01:11.035Z,23.45
2023-04-16T19:03:38.067Z,25.48
2023-04-16T19:06:04.948Z,23.52
2023-04-16T19:08:31.629Z,22.65
2023-04-16T19:10:58.076Z,22.73
2023-04-16T19:13:24.549Z,22.20
2023-04-16T19:15:51.040Z,23.17
2023-04-16T19:18:17.503Z,23.98
2023-04-16T19:20:44.043Z,23.90
2023-04-16T19:23:10.548Z,24.23
2023-04-16T19:25:37.284Z,24.35
2023-04-16T19:28:06.641Z,24.33
2023-04-16T19:30:36.059Z,24.33
2023-04-16T19:33:02.679Z,24.10
2023-04-16T19:35:30.127Z,25.25
2023-04-16T19:37:58.237Z,24.45
2023-04-16T19:40:24.754Z,25.50
2023-04-16T19:42:57.645Z,23.75
2023-04-16T19:45:27.431Z,23.73
2023-04-16T19:47:53.912Z,24.67
2023-04-16T19:50:22.127Z,24.73
2023-04-16T19:52:48.548Z,23.52
2023-04-16T19:55:15.331Z,24.02
2023-04-16T19:57:41.789Z,23.13
2023-04-16T20:00:11.197Z,25.77
2023-04-16T20:02:38.176Z,23.60
2023-04-16T20:05:05.366Z,24.45
2023-04-16T20:07:31.843Z,25.85
2023-04-16T20:09:58.537Z,27.88
2023-04-16T20:12:25.241Z,29.73
2023-04-16T20:14:51.886Z,31.58
2023-04-16T20:17:19.837Z,30.42
2023-04-16T20:19:49.499Z,32.35
2023-04-16T20:22:18.203Z,32.28
2023-04-16T20:24:47.890Z,33.45
2023-04-16T20:27:19.434Z,30.77
2023-04-16T20:29:48.286Z,31.13
2023-04-16T20:32:14.811Z,31.20
2023-04-16T20:34:41.270Z,32.15
2023-04-16T20:37:07.732Z,30.00
2023-04-16T20:39:36.059Z,30.08
2023-04-16T20:42:04.248Z,30.70
2023-04-16T20:44:41.470Z,28.83
2023-04-16T20:47:18.230Z,29.35
2023-04-16T20:49:52.592Z,30.20
2023-04-16T20:52:21.801Z,29.02
2023-04-16T20:54:48.327Z,30.08
2023-04-16T20:57:14.906Z,28.38
2023-04-16T20:59:41.466Z,29.63
2023-04-16T21:02:08.128Z,28.77
2023-04-16T21:04:34.920Z,29.17
2023-04-16T21:07:09.600Z,30.20
2023-04-16T21:09:39.391Z,29.67
2023-04-16T21:12:09.580Z,28.52
2023-04-16T21:14:39.473Z,28.58
2023-04-16T21:17:05.949Z,29.30
2023-04-16T21:19:32.430Z,29.15
2023-04-16T21:21:58.902Z,29.50
2023-04-16T21:24:25.450Z,29.02
2023-04-16T21:26:51.941Z,27.98
2023-04-16T21:29:19.592Z,27.25
2023-04-16T21:31:46.299Z,27.75
2023-04-16T21:34:12.837Z,28.50
2023-04-16T21:36:39.360Z,27.73
2023-04-16T21:39:05.869Z,28.45
2023-04-16T21:41:32.615Z,28.20
2023-04-16T21:43:59.672Z,29.80
2023-04-16T21:46:29.356Z,28.52
2023-04-16T21:48:57.406Z,29.45
2023-04-16T21:51:29.414Z,28.38
2023-04-16T21:53:56.723Z,29.52
2023-04-16T21:56:30.272Z,29.38
2023-04-16T21:58:56.735Z,29.17
2023-04-16T22:01:23.330Z,30.83
2023-04-16T22:03:51.927Z,28.17
2023-04-16T22:06:19.033Z,29.42
2023-04-16T22:08:48.458Z,30.02
2023-04-16T22:11:15.438Z,28.95
2023-04-16T22:13:42.466Z,30.50
2023-04-16T22:16:11.361Z,27.73
2023-04-16T22:18:38.769Z,28.25
2023-04-16T22:21:05.555Z,28.65
2023-04-16T22:23:32.177Z,26.27
2023-04-16T22:25:58.634Z,27.35
2023-04-16T22:28:25.329Z,26.98
2023-04-16T22:30:54.774Z,27.80
2023-04-16T22:33:24.136Z,28.65
2023-04-16T22:35:50.681Z,28.23
2023-04-16T22:38:17.227Z,28.50
2023-04-16T22:40:43.662Z,28.15
2023-04-16T22:43:10.394Z,28.70
2023-04-16T22:45:40.121Z,28.50
2023-04-16T22:48:12.450Z,27.55
2023-04-16T22:50:41.762Z,28.17
2023-04-16T22:53:08.314Z,28.80
2023-04-16T22:55:34.764Z,28.38
2023-04-16T22:58:01.707Z,27.80
2023-04-16T23:00:28.427Z,27.08
2023-04-16T23:02:55.004Z,27.73
2023-04-16T23:05:23.610Z,27.05
2023-04-16T23:07:50.099Z,27.33
2023-04-16T23:10:16.626Z,27.95
2023-04-16T23:12:43.102Z,27.63
2023-04-16T23:15:10.062Z,27.35
2023-04-16T23:17:40.882Z,28.70
2023-04-16T23:20:12.151Z,27.58
2023-04-16T23:22:41.931Z,27.70
2023-04-16T23:25:08.975Z,29.02
2023-04-16T23:27:35.928Z,28.88
2023-04-16T23:30:03.519Z,30.02
2023-04-16T23:32:30.008Z,28.08
2023-04-16T23:34:56.509Z,30.60
2023-04-16T23:37:23.173Z,29.38
2023-04-16T23:39:52.271Z,28.70
2023-04-16T23:42:19.145Z,29.05
2023-04-16T23:44:51.506Z,28.60
2023-04-16T23:47:18.069Z,28.70
2023-04-16T23:49:46.990Z,29.52
2023-04-16T23:52:13.447Z,29.08
2023-04-16T23:54:40.015Z,28.02
2023-04-16T23:57:06.491Z,29.20
2023-04-16T23:59:33.004Z,29.42
